createdAt,value
2023-02-14T04:41:17.734Z,3.83
2023-02-14T04:44:21.270Z,4.62
2023-02-14T04:47:23.864Z,4.20
2023-02-14T04:50:27.129Z,4.95
2023-02-14T04:53:29.936Z,4.82
2023-02-14T04:56:33.233Z,5.82
2023-02-14T04:59:35.850Z,3.42
2023-02-14T05:02:39.067Z,5.87
2023-02-14T05:05:41.748Z,4.40
2023-02-14T05:08:45.245Z,4.20
2023-02-14T05:11:48.340Z,4.75
2023-02-14T05:14:51.410Z,5.72
2023-02-14T05:17:54.146Z,6.32
2023-02-14T05:20:57.539Z,6.10
2023-02-14T05:24:01.210Z,5.00
2023-02-14T05:27:04.256Z,5.40
2023-02-14T05:30:07.798Z,6.28
2023-02-14T05:33:11.053Z,5.10
2023-02-14T05:36:13.742Z,6.18
2023-02-14T05:39:16.810Z,5.00
2023-02-14T05:42:19.524Z,5.93
2023-02-14T05:45:23.119Z,6.82
2023-02-14T05:48:25.870Z,6.03
2023-02-14T05:51:29.232Z,6.07
2023-02-14T05:54:32.163Z,5.82
2023-02-14T05:57:35.598Z,6.87
2023-02-14T06:03:46.078Z,4.55
2023-02-14T06:06:48.706Z,5.28
2023-02-14T06:09:51.579Z,5.57
2023-02-14T06:12:54.656Z,4.85
2023-02-14T06:15:57.670Z,6.55
2023-02-14T06:19:00.396Z,4.68
2023-02-14T06:22:03.819Z,5.30
2023-02-14T06:28:09.411Z,5.03
2023-02-14T06:31:17.603Z,6.30
2023-02-14T06:34:20.622Z,4.60
2023-02-14T06:37:23.471Z,4.65
2023-02-14T06:43:28.848Z,4.18
2023-02-14T06:46:31.961Z,5.32
2023-02-14T06:49:34.937Z,6.53
2023-02-14T06:55:42.955Z,6.05
2023-02-14T06:58:46.871Z,7.10
2023-02-14T07:01:49.713Z,6.10
2023-02-14T07:07:55.229Z,6.37
2023-02-14T07:17:04.781Z,4.68
2023-02-14T07:20:09.427Z,5.15
2023-02-14T07:23:12.427Z,6.68
2023-02-14T07:26:21.148Z,6.00
2023-02-14T07:29:24.739Z,5.72
2023-02-14T07:32:27.790Z,7.72
2023-02-14T07:35:30.911Z,7.60
2023-02-14T07:38:34.374Z,5.62
2023-02-14T07:41:39.442Z,5.57
2023-02-14T07:44:46.560Z,6.37
2023-02-14T07:47:51.898Z,6.07
2023-02-14T07:50:58.120Z,6.82
2023-02-14T07:54:01.433Z,5.22
2023-02-14T07:57:04.857Z,6.20
2023-02-14T08:00:08.716Z,6.62
2023-02-14T08:03:15.388Z,5.43
2023-02-14T08:06:19.817Z,5.93
2023-02-14T08:09:25.541Z,5.75
2023-02-14T08:12:47.097Z,5.90
2023-02-14T08:16:05.722Z,6.18
2023-02-14T08:19:08.947Z,5.40
2023-02-14T08:22:11.640Z,6.30
2023-02-14T08:25:14.531Z,5.57
2023-02-14T08:28:18.396Z,5.82
2023-02-14T08:31:35.226Z,6.07
2023-02-14T08:34:38.907Z,6.07
2023-02-14T08:40:44.277Z,5.82
2023-02-14T08:43:47.222Z,5.30
2023-02-14T08:46:50.260Z,5.37
2023-02-14T08:49:53.248Z,5.03
2023-02-14T08:52:56.984Z,5.60
2023-02-14T08:56:20.225Z,5.75
2023-02-14T08:59:23.016Z,5.65
2023-02-14T09:05:28.668Z,5.30
2023-02-14T09:08:31.782Z,5.55
2023-02-14T09:11:34.902Z,5.90
2023-02-14T09:14:44.114Z,6.45
2023-02-14T09:17:47.692Z,7.53
2023-02-14T09:20:51.503Z,7.82
2023-02-14T09:23:55.001Z,6.50
2023-02-14T09:26:58.409Z,6.90
2023-02-14T09:30:01.507Z,7.10
2023-02-14T09:36:11.434Z,6.03
2023-02-14T09:39:16.483Z,5.85
2023-02-14T09:42:41.575Z,5.20
2023-02-14T09:45:54.828Z,5.75
2023-02-14T09:48:58.440Z,5.65
2023-02-14T09:52:03.797Z,5.72
2023-02-14T09:55:15.620Z,4.80
2023-02-14T09:58:36.112Z,4.87
2023-02-14T10:01:46.106Z,4.40
2023-02-14T10:05:00.794Z,4.78
2023-02-14T10:08:37.997Z,4.47
2023-02-14T10:11:45.791Z,4.97
2023-02-14T10:14:50.243Z,4.85
2023-02-14T10:18:02.820Z,4.68
2023-02-14T10:21:08.034Z,4.55
2023-02-14T10:24:37.128Z,3.60
2023-02-14T10:27:45.144Z,3.58
2023-02-14T10:31:14.179Z,5.18
2023-02-14T10:34:35.607Z,3.80
2023-02-14T10:37:48.269Z,4.80
2023-02-14T10:41:21.830Z,5.18
2023-02-14T10:44:34.302Z,5.12
2023-02-14T10:47:58.841Z,4.60
2023-02-14T10:51:11.281Z,5.05
2023-02-14T10:54:23.028Z,5.03
2023-02-14T10:57:34.444Z,5.03
2023-02-14T11:00:51.032Z,5.15
2023-02-14T11:04:04.336Z,4.18
2023-02-14T11:07:19.866Z,3.50
2023-02-14T11:10:27.095Z,3.75
2023-02-14T11:13:38.694Z,3.58
2023-02-14T11:16:42.193Z,4.47
2023-02-14T11:19:58.013Z,3.25
2023-02-14T11:23:00.925Z,3.80
2023-02-14T11:26:08.901Z,4.10
2023-02-14T11:29:16.354Z,3.78
2023-02-14T11:32:25.281Z,3.83
2023-02-14T11:35:34.639Z,4.10
2023-02-14T11:38:40.056Z,3.65
2023-02-14T11:41:52.364Z,4.18
2023-02-14T11:44:58.581Z,3.60
2023-02-14T11:48:39.474Z,3.60
2023-02-14T11:51:45.463Z,3.67
2023-02-14T11:54:51.860Z,3.75
2023-02-14T11:57:55.803Z,4.20
2023-02-14T12:01:00.355Z,3.92
2023-02-14T12:04:15.326Z,4.15
2023-02-14T12:07:21.697Z,3.62
2023-02-14T12:10:35.379Z,3.78
2023-02-14T12:13:38.395Z,4.32
2023-02-14T12:16:51.327Z,3.95
2023-02-14T12:20:03.525Z,3.50
2023-02-14T12:23:23.571Z,3.17
2023-02-14T12:26:35.174Z,4.60
2023-02-14T12:29:56.347Z,3.65
2023-02-14T12:33:00.313Z,3.55
2023-02-14T12:36:10.357Z,3.65
2023-02-14T12:39:36.505Z,3.97
2023-02-14T12:43:18.390Z,4.30
2023-02-14T12:46:45.226Z,4.20
2023-02-14T12:50:03.430Z,4.12
2023-02-14T12:53:15.413Z,3.70
2023-02-14T12:56:24.670Z,3.35
2023-02-14T12:59:46.193Z,3.78
2023-02-14T13:02:49.445Z,3.37
2023-02-14T13:06:04.264Z,3.67
2023-02-14T13:09:38.187Z,3.50
2023-02-14T13:13:00.428Z,2.92
2023-02-14T13:16:21.347Z,2.08
2023-02-14T13:19:45.323Z,2.30
2023-02-14T13:22:49.262Z,2.90
2023-02-14T13:26:07.595Z,3.17
2023-02-14T13:29:16.535Z,3.53
2023-02-14T13:32:25.890Z,3.95
2023-02-14T13:35:31.283Z,3.87
2023-02-14T13:38:40.749Z,3.92
2023-02-14T13:41:44.416Z,3.40
2023-02-14T13:44:50.065Z,5.07
2023-02-14T13:48:09.074Z,4.57
2023-02-14T13:51:11.769Z,4.72
2023-02-14T13:54:45.170Z,4.10
2023-02-14T13:58:02.748Z,4.00
2023-02-14T14:01:27.248Z,3.78
2023-02-14T14:04:31.901Z,5.65
2023-02-14T14:07:34.717Z,7.78
2023-02-14T14:10:47.190Z,8.57
2023-02-14T14:13:58.027Z,10.77
2023-02-14T14:17:01.269Z,9.25
2023-02-14T14:20:27.750Z,9.70
2023-02-14T14:23:35.149Z,6.43
2023-02-14T14:26:49.247Z,5.95
2023-02-14T14:30:07.384Z,6.87
2023-02-14T14:33:17.468Z,7.50
2023-02-14T14:36:23.868Z,9.40
2023-02-14T14:39:32.366Z,9.85
2023-02-14T14:42:40.728Z,12.10
2023-02-14T14:45:46.559Z,16.30
2023-02-14T14:48:54.474Z,15.52
2023-02-14T14:51:57.577Z,15.65
2023-02-14T14:55:02.394Z,16.73
2023-02-14T14:58:10.819Z,10.50
2023-02-14T15:01:47.391Z,11.80
2023-02-14T15:04:50.234Z,12.88
2023-02-14T15:07:53.404Z,8.60
2023-02-14T15:11:41.069Z,7.25
2023-02-14T15:14:51.336Z,7.07
2023-02-14T15:17:56.045Z,6.32
2023-02-14T15:20:59.816Z,7.03
2023-02-14T15:24:03.254Z,6.60
2023-02-14T15:27:16.996Z,6.68
2023-02-14T15:30:26.055Z,5.47
2023-02-14T15:33:31.681Z,5.93
2023-02-14T15:36:35.417Z,5.60
2023-02-14T15:39:49.239Z,5.57
2023-02-14T15:42:59.077Z,6.22
2023-02-14T15:46:28.226Z,6.32
2023-02-14T15:49:37.537Z,6.12
2023-02-14T15:52:41.413Z,6.28
2023-02-14T15:55:44.604Z,5.57
2023-02-14T15:58:49.632Z,5.12
2023-02-14T16:02:00.130Z,5.55
2023-02-14T16:05:24.885Z,4.50
2023-02-14T16:08:30.336Z,5.00
2023-02-14T16:11:38.255Z,3.92
2023-02-14T16:14:45.733Z,4.28
2023-02-14T16:17:49.351Z,5.07
2023-02-14T16:20:51.991Z,7.85
2023-02-14T16:24:08.122Z,10.45
2023-02-14T16:27:13.328Z,9.15
2023-02-14T16:30:20.080Z,13.10
2023-02-14T16:33:28.865Z,11.50
2023-02-14T16:36:34.092Z,13.45
2023-02-14T16:39:39.380Z,13.62
2023-02-14T16:42:43.523Z,13.52
2023-02-14T16:45:46.699Z,12.85
2023-02-14T16:48:52.476Z,12.43
